Time;durP1;ratioP1;P1;durP2;ratioP2;P2;SDS_P1;SDS_P2;PMS_P1;PMS_P2;Temp;Humidity;BMP_temperature;BMP_pressure;BME280_temperature;BME280_humidity;BME280_pressure;Samples;Min_cycle;Max_cycle;Signal;HPM_P1;HPM_P2
2023/12/16 00:02:24;;;;;;;5.63;2.63;;;5.90;99.90;;;;;;5006174;28;20049;-77
2023/12/16 00:04:51;;;;;;;5.93;2.63;;;5.90;99.90;;;;;;5007056;28;20046;-78
2023/12/16 00:07:18;;;;;;;5.47;2.40;;;5.80;99.90;;;;;;5011606;28;20045;-77
2023/12/16 00:09:44;;;;;;;7.75;2.65;;;5.70;99.90;;;;;;5005797;28;20554;-77
2023/12/16 00:12:11;;;;;;;5.20;2.30;;;5.60;99.90;;;;;;5008282;28;20600;-78
2023/12/16 00:14:39;;;;;;;5.00;2.60;;;5.60;99.90;;;;;;5005285;28;20054;-76
2023/12/16 00:17:05;;;;;;;5.07;2.78;;;5.50;99.90;;;;;;5002113;28;20506;-77
2023/12/16 00:19:32;;;;;;;7.68;3.33;;;5.50;99.90;;;;;;5004853;28;20568;-77
2023/12/16 00:22:00;;;;;;;3.83;2.72;;;5.50;99.90;;;;;;5005754;28;20502;-78
2023/12/16 00:24:26;;;;;;;4.45;2.40;;;5.40;99.90;;;;;;5009238;28;20068;-79
2023/12/16 00:26:53;;;;;;;6.25;3.03;;;5.30;99.90;;;;;;5010810;28;20043;-78
2023/12/16 00:29:20;;;;;;;5.28;3.00;;;5.30;99.90;;;;;;5005855;28;20092;-80
2023/12/16 00:31:47;;;;;;;4.38;2.45;;;5.20;99.90;;;;;;5008390;28;20046;-80
2023/12/16 00:34:15;;;;;;;4.15;2.08;;;5.20;99.90;;;;;;5006510;28;20493;-80
2023/12/16 00:36:42;;;;;;;7.65;2.40;;;5.20;99.90;;;;;;5007578;28;20050;-78
2023/12/16 00:39:09;;;;;;;7.03;2.88;;;5.10;99.90;;;;;;5004746;28;20042;-77
2023/12/16 00:41:36;;;;;;;7.68;2.60;;;5.10;99.90;;;;;;5009305;28;20054;-76
2023/12/16 00:44:03;;;;;;;3.38;2.63;;;5.00;99.90;;;;;;5010798;28;20038;-77
2023/12/16 00:46:31;;;;;;;5.65;2.30;;;5.00;99.90;;;;;;5006699;28;20580;-77
2023/12/16 00:48:58;;;;;;;3.50;2.50;;;5.00;99.90;;;;;;5005610;28;20529;-78
2023/12/16 00:51:25;;;;;;;7.70;3.13;;;4.90;99.90;;;;;;5005877;28;20077;-76
2023/12/16 00:53:52;;;;;;;6.40;3.35;;;4.90;99.90;;;;;;5009627;28;20088;-77
2023/12/16 00:56:18;;;;;;;6.65;3.45;;;4.80;99.90;;;;;;5009812;28;20464;-78
2023/12/16 00:58:49;;;;;;;6.03;3.22;;;4.80;99.90;;;;;;5008764;28;20050;-77
2023/12/16 01:01:16;;;;;;;7.72;3.85;;;4.80;99.90;;;;;;5004656;28;20099;-77
2023/12/16 01:03:43;;;;;;;5.03;3.75;;;4.70;99.90;;;;;;5005993;28;20100;-78
2023/12/16 01:06:10;;;;;;;14.20;4.38;;;4.70;99.90;;;;;;5005302;28;20052;-78
2023/12/16 01:08:36;;;;;;;10.48;4.50;;;4.70;99.90;;;;;;5007235;28;20245;-78
2023/12/16 01:11:03;;;;;;;5.25;3.53;;;4.60;99.90;;;;;;5008518;28;20074;-78
2023/12/16 01:13:30;;;;;;;7.15;4.43;;;4.60;99.90;;;;;;5011525;28;20417;-77
2023/12/16 01:15:57;;;;;;;8.57;4.25;;;4.60;99.90;;;;;;5029418;28;20116;-78
2023/12/16 01:18:24;;;;;;;16.25;4.13;;;4.50;99.90;;;;;;5013532;28;20045;-78
2023/12/16 01:20:51;;;;;;;6.55;3.92;;;4.50;99.90;;;;;;5007592;28;20096;-78
2023/12/16 01:23:17;;;;;;;7.25;3.72;;;4.40;99.90;;;;;;5010836;28;20069;-77
2023/12/16 01:25:44;;;;;;;7.82;2.95;;;4.40;99.90;;;;;;5008902;28;20042;-78
2023/12/16 01:28:11;;;;;;;10.13;3.78;;;4.40;99.90;;;;;;5009739;28;20070;-77
2023/12/16 01:30:38;;;;;;;9.68;3.35;;;4.40;99.90;;;;;;5009906;28;20038;-78
2023/12/16 01:33:05;;;;;;;6.70;3.60;;;4.40;99.90;;;;;;5009158;28;20149;-78
2023/12/16 01:35:31;;;;;;;6.88;3.28;;;4.50;99.90;;;;;;5010332;28;20049;-77
2023/12/16 01:37:58;;;;;;;6.68;3.78;;;4.50;99.90;;;;;;5006839;28;20104;-78
2023/12/16 01:40:25;;;;;;;7.65;3.70;;;4.60;99.90;;;;;;5014407;28;20084;-77
2023/12/16 01:42:54;;;;;;;7.22;3.97;;;4.60;99.90;;;;;;5008344;28;20054;-78
2023/12/16 01:45:22;;;;;;;9.40;4.00;;;4.70;99.90;;;;;;5016019;28;20121;-77
2023/12/16 01:47:49;;;;;;;6.55;3.63;;;4.70;99.90;;;;;;5004888;28;20506;-78
2023/12/16 01:50:16;;;;;;;8.82;3.45;;;4.80;99.90;;;;;;5011594;28;20046;-78
2023/12/16 01:52:44;;;;;;;6.72;3.35;;;4.80;99.90;;;;;;5008085;28;20046;-77
2023/12/16 01:55:12;;;;;;;6.88;3.17;;;4.90;99.90;;;;;;5008356;28;20168;-78
2023/12/16 01:57:40;;;;;;;9.95;4.47;;;4.90;99.90;;;;;;5007172;28;20046;-78
2023/12/16 02:00:07;;;;;;;7.10;3.58;;;4.90;99.90;;;;;;5009756;28;20080;-77
2023/12/16 02:02:34;;;;;;;6.15;2.70;;;5.00;99.90;;;;;;5010983;28;20080;-77
2023/12/16 02:05:01;;;;;;;4.60;3.08;;;5.00;99.90;;;;;;5012567;28;20046;-77
2023/12/16 02:07:28;;;;;;;7.93;2.75;;;5.00;99.90;;;;;;5010490;28;20050;-77
2023/12/16 02:09:55;;;;;;;6.78;3.15;;;5.00;99.90;;;;;;5011180;28;20073;-78
2023/12/16 02:12:22;;;;;;;5.22;3.20;;;5.10;99.90;;;;;;5014640;28;20462;-76
2023/12/16 02:14:49;;;;;;;5.70;3.10;;;5.00;99.90;;;;;;5006438;28;20046;-77
2023/12/16 02:17:15;;;;;;;5.05;2.40;;;5.10;99.90;;;;;;5010350;28;20049;-77
2023/12/16 02:19:46;;;;;;;6.93;2.80;;;5.10;99.90;;;;;;5008124;28;20086;-78
2023/12/16 02:22:13;;;;;;;7.05;2.67;;;5.10;99.90;;;;;;5010483;28;20046;-77
2023/12/16 02:24:41;;;;;;;2.70;2.10;;;5.10;99.90;;;;;;5007860;28;20050;-78
2023/12/16 02:27:09;;;;;;;4.10;2.38;;;5.10;99.90;;;;;;5008420;28;20409;-76
2023/12/16 02:29:35;;;;;;;7.72;3.72;;;5.00;99.90;;;;;;5012691;28;20092;-77
2023/12/16 02:32:02;;;;;;;7.68;3.70;;;5.00;99.90;;;;;;5012033;28;20432;-78
2023/12/16 02:34:30;;;;;;;4.88;2.50;;;5.00;99.90;;;;;;5010623;28;20572;-78
2023/12/16 02:36:57;;;;;;;5.68;3.10;;;5.00;99.90;;;;;;5006592;28;20050;-79
2023/12/16 02:39:23;;;;;;;5.03;3.05;;;5.00;99.90;;;;;;5008604;28;20129;-77
2023/12/16 02:41:50;;;;;;;7.57;2.95;;;4.90;99.90;;;;;;5009797;28;20051;-78
2023/12/16 02:44:17;;;;;;;5.35;2.90;;;4.90;99.90;;;;;;5012453;28;20078;-77
2023/12/16 02:46:43;;;;;;;5.15;2.95;;;4.90;99.90;;;;;;5009816;28;20400;-78
2023/12/16 02:49:10;;;;;;;5.55;2.72;;;4.80;99.90;;;;;;5011431;28;20062;-77
2023/12/16 02:51:37;;;;;;;4.68;3.00;;;4.80;99.90;;;;;;5005374;28;20793;-78
2023/12/16 02:54:03;;;;;;;6.45;2.67;;;4.70;99.90;;;;;;5009801;28;20046;-78
2023/12/16 02:56:30;;;;;;;5.50;2.40;;;4.70;99.90;;;;;;5010102;28;20046;-78
2023/12/16 02:58:57;;;;;;;3.53;2.00;;;4.60;99.90;;;;;;5010742;28;20047;-78
2023/12/16 03:01:24;;;;;;;4.82;3.08;;;4.60;99.90;;;;;;5010623;28;20100;-78
2023/12/16 03:03:50;;;;;;;4.28;2.03;;;4.50;99.90;;;;;;5007717;28;20078;-77
2023/12/16 03:06:17;;;;;;;4.45;2.30;;;4.50;99.90;;;;;;5009078;28;20568;-77
2023/12/16 03:08:44;;;;;;;6.30;2.47;;;4.40;99.90;;;;;;5009244;28;20046;-77
2023/12/16 03:11:11;;;;;;;7.65;2.95;;;4.40;99.90;;;;;;5006882;28;20489;-78
2023/12/16 03:13:38;;;;;;;5.72;2.35;;;4.40;99.90;;;;;;5010706;28;20131;-78
2023/12/16 03:16:05;;;;;;;5.47;2.25;;;4.40;99.90;;;;;;5006542;28;20514;-77
2023/12/16 03:18:31;;;;;;;4.32;2.58;;;4.30;99.90;;;;;;5007246;28;20056;-77
2023/12/16 03:20:58;;;;;;;3.83;2.55;;;4.30;99.90;;;;;;5010488;28;20058;-77
2023/12/16 03:23:25;;;;;;;3.13;2.20;;;4.20;99.90;;;;;;5003208;28;20093;-75
2023/12/16 03:25:52;;;;;;;5.35;2.85;;;4.20;99.90;;;;;;5007837;28;20045;-78
2023/12/16 03:28:18;;;;;;;4.10;2.50;;;4.10;99.90;;;;;;5008294;28;20045;-77
2023/12/16 03:30:45;;;;;;;3.78;2.20;;;4.10;99.90;;;;;;5006542;28;20130;-76
2023/12/16 03:33:12;;;;;;;4.95;2.83;;;4.10;99.90;;;;;;5006107;28;20498;-77
2023/12/16 03:35:39;;;;;;;5.00;2.47;;;4.00;99.90;;;;;;5007712;28;20428;-77
2023/12/16 03:38:05;;;;;;;4.07;2.28;;;4.00;99.90;;;;;;5011705;28;20072;-77
2023/12/16 03:40:32;;;;;;;8.90;2.75;;;3.90;99.90;;;;;;5008667;28;20081;-77
2023/12/16 03:42:59;;;;;;;3.95;2.63;;;3.90;99.90;;;;;;5007117;28;20506;-79
2023/12/16 03:45:26;;;;;;;4.55;2.35;;;3.90;99.90;;;;;;5009994;28;20420;-76
2023/12/16 03:47:53;;;;;;;9.52;2.30;;;3.90;99.90;;;;;;5004420;28;20054;-77
2023/12/16 03:50:19;;;;;;;4.32;2.83;;;3.80;99.90;;;;;;5009199;28;20041;-76
2023/12/16 03:52:46;;;;;;;4.70;2.80;;;3.90;99.90;;;;;;5007060;28;20501;-75
2023/12/16 03:55:13;;;;;;;6.07;3.20;;;3.80;99.90;;;;;;5004064;28;20097;-76
2023/12/16 03:57:40;;;;;;;5.65;2.60;;;3.80;99.90;;;;;;5006999;28;20054;-77
2023/12/16 04:00:08;;;;;;;7.47;3.75;;;3.80;99.90;;;;;;5006327;28;20051;-77
2023/12/16 04:02:35;;;;;;;6.30;3.45;;;3.70;99.90;;;;;;5015898;28;20123;-75
2023/12/16 04:05:02;;;;;;;5.93;3.53;;;3.70;99.90;;;;;;5003864;28;20072;-76
2023/12/16 04:07:29;;;;;;;7.72;3.60;;;3.70;99.90;;;;;;5009613;28;20577;-75
2023/12/16 04:09:56;;;;;;;6.43;4.35;;;3.60;99.90;;;;;;5003990;28;20047;-76
2023/12/16 04:12:23;;;;;;;7.20;4.85;;;3.60;99.90;;;;;;5009650;28;20048;-76
2023/12/16 04:14:50;;;;;;;6.28;3.85;;;3.60;99.90;;;;;;5008288;28;20149;-79
2023/12/16 04:17:17;;;;;;;5.97;4.03;;;3.60;99.90;;;;;;5008870;28;20100;-75
2023/12/16 04:19:51;;;;;;;6.07;3.67;;;3.60;99.90;;;;;;5006944;28;20049;-75
2023/12/16 04:22:19;;;;;;;8.43;4.28;;;3.60;99.90;;;;;;5006396;28;20050;-75
2023/12/16 04:24:48;;;;;;;7.68;3.92;;;3.60;99.90;;;;;;5009255;28;20057;-79
2023/12/16 04:27:14;;;;;;;7.25;4.40;;;3.50;99.90;;;;;;5006002;28;20399;-77
2023/12/16 04:29:41;;;;;;;10.07;4.47;;;3.50;99.90;;;;;;5008001;28;20054;-78
2023/12/16 04:32:08;;;;;;;6.07;3.97;;;3.50;99.90;;;;;;5005671;28;20493;-79
2023/12/16 04:34:35;;;;;;;7.95;3.92;;;3.50;99.90;;;;;;5010775;28;20046;-77
2023/12/16 04:37:01;;;;;;;6.38;4.40;;;3.40;99.90;;;;;;5005005;28;20057;-79
2023/12/16 04:39:28;;;;;;;9.32;4.32;;;3.40;99.90;;;;;;5010570;28;20060;-77
2023/12/16 04:41:55;;;;;;;8.05;4.00;;;3.40;99.90;;;;;;5003681;28;20089;-79
2023/12/16 04:44:22;;;;;;;8.18;4.50;;;3.40;99.90;;;;;;5012931;28;20037;-77
2023/12/16 04:46:48;;;;;;;6.57;4.50;;;3.40;99.90;;;;;;5005724;28;20054;-77
2023/12/16 04:49:15;;;;;;;7.90;4.30;;;3.40;99.90;;;;;;5005480;28;20047;-77
2023/12/16 04:51:42;;;;;;;7.38;4.10;;;3.30;99.90;;;;;;5010611;28;20054;-76
2023/12/16 04:54:09;;;;;;;8.82;3.78;;;3.30;99.90;;;;;;5008583;28;20399;-77
2023/12/16 04:56:35;;;;;;;8.77;4.43;;;3.30;99.90;;;;;;5010370;28;20053;-77
2023/12/16 04:59:02;;;;;;;5.95;4.05;;;3.30;99.90;;;;;;5004330;28;20104;-76
2023/12/16 05:01:29;;;;;;;15.80;4.10;;;3.20;99.90;;;;;;5007049;28;20046;-76
2023/12/16 05:03:55;;;;;;;5.15;3.60;;;3.20;99.90;;;;;;5002440;28;20133;-77
2023/12/16 05:06:22;;;;;;;11.05;4.53;;;3.20;99.90;;;;;;5006063;28;20395;-76
2023/12/16 05:08:49;;;;;;;6.20;4.28;;;3.20;99.90;;;;;;5002729;28;20050;-75
2023/12/16 05:11:16;;;;;;;8.48;4.15;;;3.20;99.90;;;;;;5007719;28;20124;-78
2023/12/16 05:13:43;;;;;;;9.55;4.22;;;3.20;99.90;;;;;;5003495;28;20100;-77
2023/12/16 05:16:10;;;;;;;5.68;3.67;;;3.10;99.90;;;;;;5006328;28;20089;-77
2023/12/16 05:18:36;;;;;;;7.65;4.10;;;3.10;99.90;;;;;;5000897;28;20473;-77
2023/12/16 05:21:04;;;;;;;7.13;3.97;;;3.10;99.90;;;;;;5006214;28;20050;-77
2023/12/16 05:23:30;;;;;;;7.95;4.57;;;3.10;99.90;;;;;;5002978;28;20046;-77
2023/12/16 05:25:57;;;;;;;6.57;4.28;;;3.10;99.90;;;;;;5005760;28;20041;-77
2023/12/16 05:28:24;;;;;;;9.65;4.70;;;3.00;99.90;;;;;;5005767;28;20041;-77
2023/12/16 05:30:50;;;;;;;7.05;4.05;;;3.10;99.90;;;;;;5006074;28;20053;-79
2023/12/16 05:33:17;;;;;;;8.20;4.30;;;3.00;99.90;;;;;;5006696;28;20047;-77
2023/12/16 05:35:44;;;;;;;9.07;5.32;;;3.00;99.90;;;;;;5007019;28;20363;-77
2023/12/16 05:38:11;;;;;;;8.90;5.10;;;3.00;99.90;;;;;;5004472;28;20116;-78
2023/12/16 05:40:38;;;;;;;8.18;5.13;;;3.00;99.90;;;;;;5006735;28;20054;-79
2023/12/16 05:43:04;;;;;;;7.93;4.30;;;3.00;99.90;;;;;;5006947;28;20050;-78
2023/12/16 05:45:31;;;;;;;8.85;4.80;;;3.00;99.90;;;;;;5001862;28;20417;-78
2023/12/16 05:47:58;;;;;;;10.00;4.10;;;2.90;99.90;;;;;;5008891;28;20065;-78
2023/12/16 05:50:25;;;;;;;9.23;4.22;;;2.90;99.90;;;;;;5005048;28;20100;-79
2023/12/16 05:52:52;;;;;;;9.95;4.57;;;2.90;99.90;;;;;;5011155;28;20042;-78
2023/12/16 05:55:18;;;;;;;8.65;4.40;;;2.90;99.90;;;;;;5007257;28;20050;-78
2023/12/16 05:57:45;;;;;;;4.80;3.60;;;2.90;99.90;;;;;;5011235;28;20055;-79
2023/12/16 06:00:12;;;;;;;7.63;4.35;;;2.90;99.90;;;;;;5006222;28;20054;-78
2023/12/16 06:02:39;;;;;;;8.07;4.18;;;2.90;99.90;;;;;;5012056;28;20492;-78
2023/12/16 06:05:06;;;;;;;7.10;4.13;;;2.80;99.90;;;;;;5007610;28;20046;-78
2023/12/16 06:07:33;;;;;;;8.00;3.63;;;2.80;99.90;;;;;;5010382;28;20133;-78
2023/12/16 06:10:00;;;;;;;5.80;3.78;;;2.80;99.90;;;;;;5006159;28;20050;-79
2023/12/16 06:12:29;;;;;;;9.10;4.07;;;2.80;99.90;;;;;;5006927;28;20073;-78
2023/12/16 06:14:56;;;;;;;4.85;3.67;;;2.70;99.90;;;;;;5010254;28;20128;-79
2023/12/16 06:17:23;;;;;;;7.70;4.97;;;2.70;99.90;;;;;;5008277;28;20104;-79
2023/12/16 06:19:50;;;;;;;12.70;8.50;;;2.70;99.90;;;;;;5009358;28;20412;-79
2023/12/16 06:22:16;;;;;;;11.13;7.00;;;2.70;99.90;;;;;;5008191;28;20054;-79
2023/12/16 06:24:43;;;;;;;10.02;5.93;;;2.70;99.90;;;;;;5020532;28;20133;-78
2023/12/16 06:27:10;;;;;;;6.93;4.70;;;2.70;99.90;;;;;;5013630;28;20046;-78
2023/12/16 06:29:39;;;;;;;12.27;6.40;;;2.70;99.90;;;;;;5012592;28;20065;-78
2023/12/16 06:32:06;;;;;;;8.05;5.40;;;2.70;99.90;;;;;;5011458;28;20077;-79
2023/12/16 06:34:33;;;;;;;9.93;5.10;;;2.70;99.90;;;;;;5010949;28;20104;-77
2023/12/16 06:37:00;;;;;;;12.57;5.38;;;2.70;99.90;;;;;;5007072;28;20050;-78
2023/12/16 06:39:26;;;;;;;8.23;5.00;;;2.60;99.90;;;;;;5008751;28;20085;-78
2023/12/16 06:41:53;;;;;;;7.93;4.32;;;2.60;99.90;;;;;;5012943;28;20049;-78
2023/12/16 06:44:20;;;;;;;8.10;4.45;;;2.60;99.90;;;;;;5006956;28;20058;-78
2023/12/16 06:46:46;;;;;;;7.18;4.72;;;2.60;99.90;;;;;;5009186;28;20465;-77
2023/12/16 06:49:13;;;;;;;11.32;5.57;;;2.60;99.90;;;;;;5005849;28;20109;-78
2023/12/16 06:51:40;;;;;;;8.75;4.47;;;2.60;99.90;;;;;;5007484;28;20521;-77
2023/12/16 06:54:07;;;;;;;6.47;4.38;;;2.50;99.90;;;;;;5005436;28;20046;-77
2023/12/16 06:56:33;;;;;;;8.57;4.43;;;2.50;99.90;;;;;;5006719;28;20501;-78
2023/12/16 06:59:00;;;;;;;9.05;4.75;;;2.50;99.90;;;;;;5004655;28;20061;-77
2023/12/16 07:01:27;;;;;;;6.03;4.30;;;2.50;99.90;;;;;;5009742;28;20097;-78
2023/12/16 07:03:54;;;;;;;6.82;4.07;;;2.50;99.90;;;;;;5004824;28;20092;-77
2023/12/16 07:06:20;;;;;;;5.03;3.42;;;2.50;99.90;;;;;;5007745;28;20046;-77
2023/12/16 07:08:47;;;;;;;5.25;3.90;;;2.50;99.90;;;;;;5011739;28;20042;-77
2023/12/16 07:11:14;;;;;;;6.60;4.25;;;2.50;99.90;;;;;;5009468;28;20050;-77
2023/12/16 07:13:41;;;;;;;4.90;3.85;;;2.50;99.90;;;;;;5006097;28;20057;-77
2023/12/16 07:16:09;;;;;;;5.88;3.92;;;2.50;99.90;;;;;;5006885;28;20061;-78
2023/12/16 07:18:36;;;;;;;10.48;5.78;;;2.50;99.90;;;;;;5007799;28;20137;-77
2023/12/16 07:21:06;;;;;;;9.50;5.32;;;2.40;99.90;;;;;;5006414;28;20129;-78
2023/12/16 07:23:33;;;;;;;9.57;4.90;;;2.50;99.90;;;;;;5007979;28;20046;-78
2023/12/16 07:26:00;;;;;;;9.20;5.25;;;2.50;99.90;;;;;;5005843;28;20046;-76
2023/12/16 07:28:27;;;;;;;8.50;6.25;;;2.50;99.90;;;;;;5005968;28;20074;-77
2023/12/16 07:30:54;;;;;;;9.52;5.72;;;2.50;99.90;;;;;;5010246;28;20042;-77
2023/12/16 07:33:21;;;;;;;10.90;6.50;;;2.40;99.90;;;;;;5008649;28;20046;-77
2023/12/16 07:35:48;;;;;;;10.57;5.72;;;2.40;99.90;;;;;;5002235;28;20051;-78
2023/12/16 07:38:18;;;;;;;;;;;2.40;99.90;;;;;;5007893;28;20046;-78
2023/12/16 07:40:45;;;;;;;10.75;6.32;;;2.40;99.90;;;;;;5006013;28;20401;-77
2023/12/16 07:43:12;;;;;;;14.00;6.80;;;2.40;99.90;;;;;;5006383;28;20050;-78
2023/12/16 07:45:38;;;;;;;17.30;7.70;;;2.40;99.90;;;;;;5005578;28;20052;-77
2023/12/16 07:48:05;;;;;;;15.38;8.45;;;2.40;99.90;;;;;;5007021;28;20080;-77
2023/12/16 07:50:32;;;;;;;15.93;7.60;;;2.40;99.90;;;;;;5007261;28;20058;-76
2023/12/16 07:52:59;;;;;;;14.95;8.38;;;2.40;99.90;;;;;;5003613;28;20521;-77
2023/12/16 07:55:27;;;;;;;14.52;6.97;;;2.40;99.90;;;;;;5021200;28;20046;-77
2023/12/16 07:57:54;;;;;;;12.45;6.90;;;2.40;99.90;;;;;;5002872;28;20470;-77
2023/12/16 08:00:21;;;;;;;12.50;6.63;;;2.40;99.90;;;;;;5004982;28;20519;-77
2023/12/16 08:02:48;;;;;;;8.45;5.10;;;2.40;99.90;;;;;;5006716;28;20077;-77
2023/12/16 08:05:15;;;;;;;7.80;5.13;;;2.40;99.90;;;;;;5006668;28;20096;-77
2023/12/16 08:07:45;;;;;;;8.25;5.85;;;2.50;99.90;;;;;;5006014;28;20042;-76
2023/12/16 08:10:12;;;;;;;20.38;11.25;;;2.40;99.90;;;;;;5005981;28;20045;-77
2023/12/16 08:12:39;;;;;;;26.05;14.60;;;2.50;99.90;;;;;;5001650;28;20062;-77
2023/12/16 08:15:06;;;;;;;21.40;12.57;;;2.50;99.90;;;;;;5004604;28;20108;-76
2023/12/16 08:17:33;;;;;;;18.27;10.73;;;2.50;99.90;;;;;;5018988;28;20472;-74
2023/12/16 08:20:00;;;;;;;20.33;11.75;;;2.50;99.90;;;;;;5004348;28;20061;-78
2023/12/16 08:22:26;;;;;;;22.20;12.40;;;2.50;99.90;;;;;;5002991;28;20050;-77
2023/12/16 08:24:54;;;;;;;20.48;12.32;;;2.50;99.90;;;;;;5007615;28;20050;-77
2023/12/16 08:27:20;;;;;;;27.38;14.05;;;2.60;99.90;;;;;;5004704;28;20124;-78
2023/12/16 08:29:47;;;;;;;21.77;14.70;;;2.60;99.90;;;;;;5006717;28;20104;-77
2023/12/16 08:32:14;;;;;;;28.17;17.73;;;2.60;99.90;;;;;;5007161;28;20046;-76
2023/12/16 08:34:41;;;;;;;31.48;18.83;;;2.60;99.90;;;;;;5000762;28;20465;-77
2023/12/16 08:37:08;;;;;;;29.67;17.42;;;2.60;99.90;;;;;;5006498;28;20045;-78
2023/12/16 08:39:35;;;;;;;26.23;15.82;;;2.70;99.90;;;;;;5004360;28;20054;-77
2023/12/16 08:42:01;;;;;;;24.15;15.00;;;2.70;99.90;;;;;;5006829;28;20046;-77
2023/12/16 08:44:31;;;;;;;23.92;14.45;;;2.70;99.90;;;;;;5004209;28;20433;-78
2023/12/16 08:46:58;;;;;;;20.33;13.38;;;2.70;99.90;;;;;;5010791;28;20049;-76
2023/12/16 08:49:25;;;;;;;25.83;16.00;;;2.80;99.90;;;;;;5001688;28;20054;-75
2023/12/16 08:51:53;;;;;;;22.10;14.88;;;2.80;99.90;;;;;;5007505;28;20050;-77
2023/12/16 08:54:20;;;;;;;24.58;14.77;;;2.80;99.90;;;;;;5001926;28;20522;-76
2023/12/16 08:56:47;;;;;;;26.38;17.08;;;2.90;99.90;;;;;;5008099;28;20477;-77
2023/12/16 08:59:14;;;;;;;28.42;16.02;;;2.90;99.90;;;;;;5003469;28;20061;-77
2023/12/16 09:01:42;;;;;;;28.98;15.85;;;2.90;99.90;;;;;;5006951;28;20073;-77
2023/12/16 09:04:09;;;;;;;29.73;17.02;;;2.90;99.90;;;;;;5010059;28;20506;-77
2023/12/16 09:06:39;;;;;;;25.58;15.32;;;3.00;99.90;;;;;;5004901;28;20053;-76
2023/12/16 09:09:06;;;;;;;;;;;3.00;99.90;;;;;;5006798;28;20108;-77
2023/12/16 09:11:35;;;;;;;20.95;14.13;;;3.10;99.90;;;;;;5004776;28;20024;-76
2023/12/16 09:14:04;;;;;;;22.15;13.63;;;3.10;99.90;;;;;;5006734;28;20100;-76
2023/12/16 09:16:33;;;;;;;21.25;13.60;;;3.10;99.90;;;;;;5003214;28;20505;-77
2023/12/16 09:19:00;;;;;;;41.75;20.70;;;3.20;99.90;;;;;;5005482;28;20056;-77
2023/12/16 09:21:27;;;;;;;25.80;14.52;;;3.20;99.90;;;;;;5002436;28;20084;-78
2023/12/16 09:23:54;;;;;;;24.48;12.77;;;3.30;99.90;;;;;;5008645;28;20100;-77
2023/12/16 09:26:23;;;;;;;21.23;13.25;;;3.30;99.90;;;;;;5001126;28;20070;-77
2023/12/16 09:28:50;;;;;;;18.48;12.15;;;3.30;99.90;;;;;;5007979;28;20124;-77
2023/12/16 09:31:17;;;;;;;22.15;13.18;;;3.30;99.90;;;;;;5013252;28;20038;-75
2023/12/16 09:33:44;;;;;;;23.88;12.20;;;3.40;99.90;;;;;;5014240;28;20124;-77
2023/12/16 09:36:12;;;;;;;17.10;11.05;;;3.40;99.90;;;;;;5007588;28;20050;-78
2023/12/16 09:38:42;;;;;;;15.35;10.77;;;3.50;99.90;;;;;;5008236;28;20398;-77
2023/12/16 09:41:25;;;;;;;14.82;10.18;;;3.50;99.90;;;;;;5010864;28;20053;-77
2023/12/16 09:43:54;;;;;;;16.67;9.68;;;3.50;99.90;;;;;;5003985;28;20042;-76
2023/12/16 09:46:24;;;;;;;17.95;9.90;;;3.50;99.90;;;;;;5011731;28;20413;-76
2023/12/16 09:48:51;;;;;;;;;;;3.60;99.90;;;;;;5008243;28;20124;-77
2023/12/16 09:51:21;;;;;;;15.30;9.20;;;3.60;99.90;;;;;;5010162;28;19921;-77
2023/12/16 09:53:49;;;;;;;18.67;9.98;;;3.60;99.90;;;;;;5007663;28;20096;-77
2023/12/16 09:56:16;;;;;;;16.40;8.90;;;3.60;99.90;;;;;;5009059;28;20115;-78
2023/12/16 09:58:45;;;;;;;16.48;9.32;;;3.60;99.90;;;;;;5009791;28;20046;-79
2023/12/16 10:01:13;;;;;;;18.98;9.77;;;3.60;99.90;;;;;;5005713;28;20050;-78
2023/12/16 10:03:41;;;;;;;21.17;9.70;;;3.60;99.90;;;;;;5012424;28;20073;-78
2023/12/16 10:06:09;;;;;;;16.45;8.73;;;3.60;99.90;;;;;;5007872;28;20108;-78
2023/12/16 10:08:37;;;;;;;12.82;8.60;;;3.70;99.90;;;;;;5008324;28;20050;-78
2023/12/16 10:11:05;;;;;;;15.50;8.52;;;3.70;99.90;;;;;;5010828;28;20042;-77
2023/12/16 10:13:56;;;;;;;12.48;7.38;;;3.70;99.90;;;;;;5017997;28;20116;-77
2023/12/16 10:16:26;;;;;;;12.43;7.22;;;3.80;99.90;;;;;;5016274;28;20130;-78
2023/12/16 10:18:55;;;;;;;10.38;7.53;;;3.80;99.90;;;;;;5008294;28;20050;-79
2023/12/16 10:21:31;;;;;;;9.65;6.53;;;3.80;99.90;;;;;;5010247;28;20046;-79
2023/12/16 10:23:59;;;;;;;11.73;7.35;;;3.90;99.90;;;;;;5009240;28;20050;-79
2023/12/16 10:26:30;;;;;;;17.10;6.85;;;3.90;99.90;;;;;;5008094;28;20108;-78
2023/12/16 10:29:00;;;;;;;11.90;7.63;;;3.90;99.90;;;;;;5011505;28;20046;-79
2023/12/16 10:31:28;;;;;;;10.02;6.88;;;3.90;99.90;;;;;;5022040;28;20042;-78
2023/12/16 10:33:54;;;;;;;9.70;6.70;;;3.90;99.90;;;;;;5010644;28;20132;-77
2023/12/16 10:36:21;;;;;;;11.88;7.68;;;3.90;99.90;;;;;;5014411;28;20058;-77
2023/12/16 10:38:48;;;;;;;9.20;6.60;;;4.00;99.90;;;;;;5013477;28;20060;-78
2023/12/16 10:41:15;;;;;;;9.90;6.60;;;4.00;99.90;;;;;;5014877;28;20109;-77
2023/12/16 10:43:42;;;;;;;10.15;6.50;;;4.00;99.90;;;;;;5015933;28;20438;-79
2023/12/16 10:46:12;;;;;;;13.68;7.55;;;4.00;99.90;;;;;;5015213;28;20453;-77
2023/12/16 10:48:41;;;;;;;10.80;6.90;;;4.00;99.90;;;;;;5026614;28;20073;-78
2023/12/16 10:51:10;;;;;;;9.35;6.65;;;4.00;99.90;;;;;;5013689;28;20048;-78
2023/12/16 10:54:00;;;;;;;10.13;6.88;;;4.10;99.90;;;;;;5014596;28;20046;-77
2023/12/16 10:56:29;;;;;;;12.27;7.60;;;4.10;99.90;;;;;;5010162;28;20046;-78
2023/12/16 10:59:05;;;;;;;17.80;10.90;;;4.10;99.90;;;;;;5005598;28;20101;-78
2023/12/16 11:01:44;;;;;;;12.38;8.30;;;4.10;99.90;;;;;;5007447;28;20073;-77
2023/12/16 11:04:15;;;;;;;8.68;6.70;;;4.10;99.90;;;;;;5008279;28;20620;-78
2023/12/16 11:06:54;;;;;;;14.85;7.63;;;4.20;99.90;;;;;;5007832;28;20120;-79
2023/12/16 11:09:21;;;;;;;11.20;7.72;;;4.20;99.90;;;;;;5023434;28;20044;-78
2023/12/16 11:11:49;;;;;;;13.25;7.65;;;4.20;99.90;;;;;;5012812;28;20465;-78
2023/12/16 11:14:17;;;;;;;16.73;10.38;;;4.20;99.90;;;;;;5007348;28;20093;-77
2023/12/16 11:16:57;;;;;;;16.38;11.13;;;4.20;99.90;;;;;;5006983;28;20135;-79
2023/12/16 11:19:28;;;;;;;13.13;7.75;;;4.20;99.90;;;;;;5024099;28;20409;-79
2023/12/16 11:21:55;;;;;;;14.45;7.80;;;4.20;99.90;;;;;;5012288;28;20041;-78
2023/12/16 11:24:22;;;;;;;13.65;8.27;;;4.20;99.90;;;;;;5009046;28;20086;-77
2023/12/16 11:26:53;;;;;;;10.75;6.78;;;4.20;99.90;;;;;;5011837;28;20054;-77
2023/12/16 11:29:22;;;;;;;13.80;8.40;;;4.20;99.90;;;;;;5006070;28;20108;-77
2023/12/16 11:31:53;;;;;;;12.18;7.75;;;4.20;99.90;;;;;;5008641;28;20494;-77
2023/12/16 11:34:38;;;;;;;13.23;8.60;;;4.30;99.90;;;;;;5011782;28;20105;-79
2023/12/16 11:37:05;;;;;;;12.07;8.45;;;4.30;99.90;;;;;;5024771;28;20073;-78
2023/12/16 11:39:40;;;;;;;15.52;9.65;;;4.30;99.90;;;;;;5002856;28;20086;-79
2023/12/16 11:42:13;;;;;;;14.35;9.77;;;4.40;99.90;;;;;;5009304;28;20100;-78
2023/12/16 11:44:55;;;;;;;17.95;10.38;;;4.30;99.90;;;;;;5006994;28;20054;-79
2023/12/16 11:47:28;;;;;;;19.13;10.35;;;4.40;99.90;;;;;;5007531;28;20038;-79
2023/12/16 11:49:56;;;;;;;20.80;11.48;;;4.40;99.90;;;;;;5004291;28;20539;-79
2023/12/16 11:52:24;;;;;;;24.15;11.93;;;4.40;99.90;;;;;;5005141;28;20574;-77
2023/12/16 11:54:53;;;;;;;22.77;12.38;;;4.40;99.90;;;;;;5010012;28;20049;-77
2023/12/16 11:57:25;;;;;;;28.02;13.18;;;4.40;99.90;;;;;;5004514;28;20121;-78
2023/12/16 11:59:53;;;;;;;23.80;13.98;;;4.50;99.90;;;;;;5010627;28;20477;-79
2023/12/16 12:02:21;;;;;;;26.52;14.07;;;4.50;99.90;;;;;;5006736;28;20112;-78
2023/12/16 12:04:48;;;;;;;29.52;18.52;;;4.50;99.90;;;;;;5011010;28;20465;-77
2023/12/16 12:07:16;;;;;;;24.13;13.68;;;4.50;99.90;;;;;;5006313;28;20048;-79
2023/12/16 12:09:44;;;;;;;21.83;12.60;;;4.50;99.90;;;;;;5006702;28;20047;-80
2023/12/16 12:12:14;;;;;;;20.42;12.13;;;4.60;99.90;;;;;;5011596;28;20053;-78
2023/12/16 12:14:46;;;;;;;19.60;13.15;;;4.60;99.90;;;;;;5009185;28;20057;-78
2023/12/16 12:17:14;;;;;;;21.95;12.90;;;4.60;99.90;;;;;;5014750;28;20064;-79
2023/12/16 12:19:43;;;;;;;19.45;12.40;;;4.60;99.90;;;;;;5009535;28;20050;-79
2023/12/16 12:22:10;;;;;;;20.63;13.03;;;4.70;99.90;;;;;;5011672;28;20056;-78
2023/12/16 12:24:37;;;;;;;23.25;13.45;;;4.70;99.90;;;;;;5006838;28;20054;-78
2023/12/16 12:27:04;;;;;;;28.77;14.50;;;4.70;99.90;;;;;;5012920;28;20556;-79
2023/12/16 12:29:56;;;;;;;25.45;14.95;;;4.70;99.90;;;;;;5003169;28;20046;-78
2023/12/16 12:32:24;;;;;;;21.23;15.07;;;4.70;99.90;;;;;;5008535;28;20046;-79
2023/12/16 12:35:01;;;;;;;23.67;14.18;;;4.70;99.90;;;;;;5007312;28;20225;-77
2023/12/16 12:37:41;;;;;;;24.83;14.27;;;4.70;99.90;;;;;;5007336;28;20046;-78
2023/12/16 12:40:12;;;;;;;25.02;16.23;;;4.70;99.90;;;;;;5008347;28;20050;-77
2023/12/16 12:42:54;;;;;;;22.02;14.82;;;4.70;99.90;;;;;;5003408;28;20407;-78
2023/12/16 12:45:25;;;;;;;28.13;15.48;;;4.70;99.90;;;;;;5010867;28;20079;-79
2023/12/16 12:47:53;;;;;;;22.27;14.95;;;4.70;99.90;;;;;;5004571;28;20463;-78
2023/12/16 12:50:28;;;;;;;20.45;14.05;;;4.80;99.90;;;;;;5009199;28;20399;-79
2023/12/16 12:52:54;;;;;;;22.52;14.75;;;4.80;99.90;;;;;;5011140;28;20050;-79
2023/12/16 12:55:43;;;;;;;22.13;13.82;;;4.80;99.90;;;;;;5009694;28;20073;-77